< < Back
Terminal Aerodrome Forecast


Current Version              Previous Versions:   1  2  3  4  5  6  7  8  9  

Terminal Aerodrome Forecast

123
FTUS44 KMOB 181700
TAFPNS
TAF
KPNS 181737Z 1818/1918 VRB03KT P6SM SCT100 SCT250
     FM190600 03004KT P6SM BKN050
     FM191200 05006KT P6SM -RA BKN040
      TEMPO 1914/1918 3SM RA BR BKN015=

Latest METAR

666
SAUS70 KWBC 182300 RRJ
MTRPNS
METAR KPNS 182253Z 20003KT 10SM OVC110 14/07 A3012 RMK AO2 SLP204
T01390072


USA.gov is the U.S. government's official web portal to all federal, state and local government web resources and services.